Time;durP1;ratioP1;P1;durP2;ratioP2;P2;SDS_P1;SDS_P2;PMS_P1;PMS_P2;Temp;Humidity;BMP_temperature;BMP_pressure;BME280_temperature;BME280_humidity;BME280_pressure;Samples;Min_cycle;Max_cycle;Signal;HPM_P1;HPM_P2
2024/02/10 00:01:37;;;;;;;1999.90;999.90;;;11.70;99.90;;;;;;4954111;28;20419;-71
2024/02/10 00:04:06;;;;;;;1999.90;999.90;;;11.70;99.90;;;;;;4953805;28;20464;-71
2024/02/10 00:06:36;;;;;;;1999.90;999.90;;;11.70;99.90;;;;;;4953877;28;20229;-72
2024/02/10 00:09:06;;;;;;;1999.90;999.90;;;11.80;99.90;;;;;;4953639;28;20443;-72
2024/02/10 00:11:32;;;;;;;1999.90;999.90;;;11.90;99.90;;;;;;4953755;28;20455;-71
2024/02/10 00:13:57;;;;;;;1999.90;999.90;;;12.00;99.90;;;;;;4953714;28;20459;-70
2024/02/10 00:16:26;;;;;;;1999.90;999.90;;;11.90;99.90;;;;;;4953810;28;20787;-72
2024/02/10 00:18:57;;;;;;;1999.90;999.90;;;12.00;99.90;;;;;;4953623;28;20179;-72
2024/02/10 00:21:23;;;;;;;1999.90;999.90;;;12.00;99.90;;;;;;4953796;28;20956;-72
2024/02/10 00:23:49;;;;;;;1999.90;999.90;;;12.00;99.90;;;;;;4953562;28;20435;-72
2024/02/10 00:26:22;;;;;;;1999.90;999.90;;;12.00;99.90;;;;;;4953683;28;20419;-72
2024/02/10 00:28:50;;;;;;;1999.90;999.90;;;12.10;99.90;;;;;;4953488;28;20184;-72
2024/02/10 00:31:16;;;;;;;1999.90;999.90;;;12.00;99.90;;;;;;4953630;28;20553;-72
2024/02/10 00:33:46;;;;;;;1999.90;999.90;;;12.00;99.90;;;;;;4953558;28;20465;-72
2024/02/10 00:36:12;;;;;;;1999.90;999.90;;;12.00;99.90;;;;;;4953623;28;20184;-72
2024/02/10 00:38:42;;;;;;;1999.90;999.90;;;12.00;99.90;;;;;;4953259;28;20809;-72
2024/02/10 00:41:09;;;;;;;1999.90;999.90;;;12.00;99.90;;;;;;4953632;28;20478;-72
2024/02/10 00:43:42;;;;;;;1999.90;999.90;;;12.00;99.90;;;;;;4953499;28;20464;-73
2024/02/10 00:46:17;;;;;;;1999.90;999.90;;;11.90;99.90;;;;;;4953626;28;20445;-72
2024/02/10 00:48:44;;;;;;;1999.90;999.90;;;11.90;99.90;;;;;;4962365;28;20420;-74
2024/02/10 00:51:10;;;;;;;1999.90;999.90;;;11.80;99.90;;;;;;4968092;28;20455;-72
2024/02/10 00:53:42;;;;;;;1999.90;999.90;;;11.80;99.90;;;;;;4967824;28;21046;-73
2024/02/10 00:56:11;;;;;;;1999.90;999.90;;;11.70;99.90;;;;;;4964947;28;20505;-72
2024/02/10 00:58:44;;;;;;;1999.90;999.90;;;11.70;99.90;;;;;;4953270;28;20419;-71
2024/02/10 01:01:20;;;;;;;1999.90;999.90;;;11.70;99.90;;;;;;4953430;28;20409;-71
2024/02/10 01:03:46;;;;;;;1999.90;999.90;;;11.70;99.90;;;;;;4956881;28;20446;-71
2024/02/10 01:06:12;;;;;;;1999.90;999.90;;;11.70;99.90;;;;;;4956902;28;20425;-73
2024/02/10 01:08:46;;;;;;;1999.90;999.90;;;11.60;99.90;;;;;;4956771;28;20425;-71
2024/02/10 01:11:13;;;;;;;1999.90;999.90;;;11.60;99.90;;;;;;4956776;28;21044;-72
2024/02/10 01:13:42;;;;;;;1999.90;999.90;;;11.60;99.90;;;;;;4956811;28;20485;-72
2024/02/10 01:16:10;;;;;;;1999.90;999.90;;;11.60;99.90;;;;;;4956678;28;20911;-72
2024/02/10 01:18:36;;;;;;;1999.90;999.90;;;11.60;99.90;;;;;;4956502;28;20966;-72
2024/02/10 01:21:03;;;;;;;1999.90;999.90;;;11.60;99.90;;;;;;4956828;28;20506;-73
2024/02/10 01:23:31;;;;;;;1999.90;999.90;;;11.60;99.90;;;;;;4956546;28;20435;-72
2024/02/10 01:25:57;;;;;;;1999.90;999.90;;;11.50;99.90;;;;;;4956633;28;20502;-72
2024/02/10 01:28:23;;;;;;;1999.90;999.90;;;11.50;99.90;;;;;;4956321;28;20835;-72
2024/02/10 01:30:52;;;;;;;1999.90;999.90;;;11.50;99.90;;;;;;4956448;28;20494;-72
2024/02/10 01:33:18;;;;;;;1999.90;999.90;;;11.50;99.90;;;;;;4956630;28;20206;-72
2024/02/10 01:35:44;;;;;;;1999.90;999.90;;;11.40;99.90;;;;;;4956465;28;20418;-72
2024/02/10 01:38:09;;;;;;;1999.90;999.90;;;11.40;99.90;;;;;;4956317;28;20929;-72
2024/02/10 01:40:35;;;;;;;1999.90;999.90;;;11.30;99.90;;;;;;4956122;28;20667;-72
2024/02/10 01:43:04;;;;;;;1999.90;999.90;;;11.30;99.90;;;;;;4955997;28;20237;-73
2024/02/10 01:45:30;;;;;;;1999.90;999.90;;;11.30;99.90;;;;;;4956477;28;20198;-72
2024/02/10 01:48:00;;;;;;;1999.90;999.90;;;11.30;99.90;;;;;;4956281;28;20499;-72
2024/02/10 01:50:26;;;;;;;1999.90;999.90;;;11.30;99.90;;;;;;4955855;28;20234;-71
2024/02/10 01:52:52;;;;;;;1999.90;999.90;;;11.30;99.90;;;;;;4956035;28;20466;-71
2024/02/10 01:55:18;;;;;;;1999.90;999.90;;;11.30;99.90;;;;;;4956137;28;20225;-71
2024/02/10 01:57:47;;;;;;;1999.90;999.90;;;11.40;99.90;;;;;;4955978;28;20410;-71
2024/02/10 02:00:16;;;;;;;1999.90;999.90;;;11.40;99.90;;;;;;4955667;28;20418;-73
2024/02/10 02:02:43;;;;;;;1999.90;999.90;;;11.40;99.90;;;;;;4964072;28;20434;-74
2024/02/10 02:05:09;;;;;;;1999.90;999.90;;;11.40;99.90;;;;;;4964358;28;20422;-73
2024/02/10 02:07:35;;;;;;;1999.90;999.90;;;11.40;99.90;;;;;;4963652;28;20499;-73
2024/02/10 02:10:02;;;;;;;1999.90;999.90;;;11.40;99.90;;;;;;4964539;28;20451;-73
2024/02/10 02:12:28;;;;;;;1999.90;999.90;;;11.50;99.90;;;;;;4955880;28;20545;-73
2024/02/10 02:14:57;;;;;;;1999.90;999.90;;;11.30;99.90;;;;;;4955783;28;20406;-72
2024/02/10 02:17:22;;;;;;;1999.90;999.90;;;11.30;99.90;;;;;;4955790;28;20426;-72
2024/02/10 02:19:48;;;;;;;1999.90;999.90;;;11.30;99.90;;;;;;4955412;28;20417;-72
2024/02/10 02:22:13;;;;;;;1999.90;999.90;;;11.50;99.90;;;;;;4955363;28;20251;-73
2024/02/10 02:24:39;;;;;;;1999.90;999.90;;;11.30;98.20;;;;;;4955464;28;20178;-72
2024/02/10 02:27:09;;;;;;;1999.90;999.90;;;11.30;82.40;;;;;;4955437;28;20916;-73
2024/02/10 02:29:35;;;;;;;1999.90;999.90;;;11.30;80.90;;;;;;4955190;28;20432;-73
2024/02/10 02:32:01;;;;;;;1999.90;999.90;;;11.20;99.90;;;;;;4955383;28;20539;-73
2024/02/10 02:34:27;;;;;;;1999.90;999.90;;;11.20;99.90;;;;;;4955331;28;20473;-72
2024/02/10 02:36:53;;;;;;;1999.90;999.90;;;11.10;99.90;;;;;;4955280;28;20182;-72
2024/02/10 02:39:20;;;;;;;1999.90;999.90;;;11.00;87.20;;;;;;4954910;28;20417;-72
2024/02/10 02:41:45;;;;;;;1999.90;999.90;;;10.90;99.90;;;;;;4955476;28;20186;-72
2024/02/10 02:44:14;;;;;;;1999.90;999.90;;;10.90;99.90;;;;;;4954952;28;20468;-72
2024/02/10 02:46:40;;;;;;;1999.90;999.90;;;10.80;98.40;;;;;;4955219;28;20178;-72
2024/02/10 02:49:07;;;;;;;1999.90;999.90;;;10.70;43.30;;;;;;4954846;28;20943;-72
2024/02/10 02:51:32;;;;;;;1999.90;999.90;;;10.70;99.90;;;;;;4956535;28;20464;-74
2024/02/10 02:53:58;;;;;;;1999.90;999.90;;;10.70;99.90;;;;;;4960281;28;20861;-73
2024/02/10 02:56:25;;;;;;;1999.90;999.90;;;10.60;99.90;;;;;;4957351;28;20182;-72
2024/02/10 02:58:54;;;;;;;1999.90;999.90;;;10.60;99.90;;;;;;4954832;28;20182;-72
2024/02/10 03:01:20;;;;;;;1999.90;999.90;;;10.60;99.90;;;;;;4962218;28;20422;-74
2024/02/10 03:03:49;;;;;;;1999.90;999.90;;;10.50;99.90;;;;;;4960176;28;20437;-72
2024/02/10 03:06:18;;;;;;;1999.90;999.90;;;10.40;99.90;;;;;;4954711;28;20451;-72
2024/02/10 03:08:48;;;;;;;1999.90;999.90;;;10.40;99.90;;;;;;4954512;28;20417;-72
2024/02/10 03:11:17;;;;;;;1999.90;999.90;;;10.40;99.90;;;;;;4954576;28;20528;-72
2024/02/10 03:13:47;;;;;;;1999.90;999.90;;;10.30;99.90;;;;;;4954636;28;20967;-72
2024/02/10 03:16:14;;;;;;;1999.90;999.90;;;10.30;99.90;;;;;;4954599;28;20469;-72
2024/02/10 03:18:45;;;;;;;1999.90;999.90;;;10.30;99.90;;;;;;4954330;28;20410;-71
2024/02/10 03:21:14;;;;;;;1999.90;999.90;;;10.30;99.90;;;;;;4954533;28;20949;-71
2024/02/10 03:23:40;;;;;;;1999.90;999.90;;;10.30;99.90;;;;;;4955184;28;20434;-71
2024/02/10 03:26:06;;;;;;;1999.90;999.90;;;10.20;99.90;;;;;;4959158;28;20437;-74
2024/02/10 03:28:35;;;;;;;1999.90;999.90;;;10.20;99.90;;;;;;4963750;28;20174;-74
2024/02/10 03:31:04;;;;;;;1999.90;999.90;;;10.20;99.90;;;;;;4967796;28;20956;-72
2024/02/10 03:33:34;;;;;;;1999.90;999.90;;;10.20;99.90;;;;;;4954189;28;20431;-72
2024/02/10 03:36:01;;;;;;;1999.90;999.90;;;10.20;99.90;;;;;;4954281;28;20417;-72
2024/02/10 03:38:27;;;;;;;1999.90;999.90;;;10.20;99.90;;;;;;4953961;28;20418;-73
2024/02/10 03:40:53;;;;;;;1999.90;999.90;;;10.00;99.90;;;;;;4954241;28;20421;-71
2024/02/10 03:43:22;;;;;;;1999.90;999.90;;;10.10;99.90;;;;;;4954075;28;20461;-73
2024/02/10 03:45:47;;;;;;;1999.90;999.90;;;10.00;99.90;;;;;;4954207;28;20231;-71
2024/02/10 03:48:14;;;;;;;1999.90;999.90;;;10.10;99.90;;;;;;4954050;28;20417;-71
2024/02/10 03:50:40;;;;;;;1999.90;999.90;;;10.10;99.90;;;;;;4954171;28;20705;-71
2024/02/10 03:53:05;;;;;;;1999.90;999.90;;;10.10;99.90;;;;;;4954006;28;20429;-71
2024/02/10 03:55:31;;;;;;;1999.90;999.90;;;10.10;99.90;;;;;;4954011;28;20182;-71
2024/02/10 03:57:59;;;;;;;1999.90;999.90;;;10.10;99.90;;;;;;4954035;28;20178;-73
2024/02/10 04:00:24;;;;;;;1999.90;999.90;;;10.10;99.90;;;;;;4953672;28;20186;-72
2024/02/10 04:02:50;;;;;;;1999.90;999.90;;;10.20;99.90;;;;;;4953811;28;20452;-72
2024/02/10 04:05:16;;;;;;;1999.90;999.90;;;10.20;99.90;;;;;;4953874;28;20179;-72
2024/02/10 04:07:49;;;;;;;1999.90;999.90;;;10.30;99.90;;;;;;4953935;28;20261;-72
2024/02/10 04:10:18;;;;;;;1999.90;999.90;;;10.20;99.90;;;;;;4953584;28;20595;-71
2024/02/10 04:12:44;;;;;;;1999.90;999.90;;;10.30;99.90;;;;;;4953849;28;20476;-71
2024/02/10 04:15:13;;;;;;;1999.90;999.90;;;10.20;99.90;;;;;;4953776;28;20419;-71
2024/02/10 04:17:39;;;;;;;1999.90;999.90;;;10.20;99.90;;;;;;4953757;28;20432;-72
2024/02/10 04:20:09;;;;;;;1999.90;999.90;;;10.10;99.90;;;;;;4953501;28;20860;-72
2024/02/10 04:22:38;;;;;;;1999.90;999.90;;;10.10;99.90;;;;;;4953661;28;20450;-71
2024/02/10 04:25:08;;;;;;;1999.90;999.90;;;10.20;99.90;;;;;;4953765;28;20440;-72
2024/02/10 04:27:34;;;;;;;1999.90;999.90;;;10.20;99.90;;;;;;4953659;28;20418;-71
2024/02/10 04:30:04;;;;;;;1999.90;999.90;;;10.30;99.90;;;;;;4953375;28;20787;-71
2024/02/10 04:32:35;;;;;;;1999.90;999.90;;;10.30;99.90;;;;;;4953717;28;20651;-71
2024/02/10 04:35:01;;;;;;;1999.90;999.90;;;10.30;99.90;;;;;;4953644;28;21089;-73
2024/02/10 04:37:27;;;;;;;1999.90;999.90;;;10.30;99.90;;;;;;4955513;28;20407;-72
2024/02/10 04:39:53;;;;;;;1999.90;999.90;;;10.30;99.90;;;;;;4957180;28;20326;-72
2024/02/10 04:42:19;;;;;;;1999.90;999.90;;;10.10;99.90;;;;;;4957133;28;20500;-72
2024/02/10 04:44:48;;;;;;;1999.90;999.90;;;10.20;99.90;;;;;;4957407;28;20174;-72
2024/02/10 04:47:18;;;;;;;1999.90;999.90;;;10.10;99.90;;;;;;4957639;28;20237;-72
2024/02/10 04:49:44;;;;;;;1999.90;999.90;;;10.00;99.90;;;;;;4957053;28;20426;-71
2024/02/10 04:52:09;;;;;;;1999.90;999.90;;;10.10;99.90;;;;;;4969400;28;20469;-74
2024/02/10 04:54:36;;;;;;;1999.90;999.90;;;10.00;99.90;;;;;;4972046;28;20433;-74
2024/02/10 04:57:03;;;;;;;1999.90;999.90;;;9.90;99.90;;;;;;4972386;28;20170;-73
2024/02/10 04:59:28;;;;;;;1999.90;999.90;;;9.90;99.90;;;;;;4971863;28;20417;-74
2024/02/10 05:01:55;;;;;;;1999.90;999.90;;;9.90;99.90;;;;;;4970780;28;20894;-73
2024/02/10 05:04:21;;;;;;;1999.90;999.90;;;10.00;99.90;;;;;;4970245;28;20197;-73
2024/02/10 05:06:48;;;;;;;1999.90;999.90;;;9.90;99.90;;;;;;4971202;28;20423;-73
2024/02/10 05:09:14;;;;;;;1999.90;999.90;;;9.90;99.90;;;;;;4971202;28;20424;-73
2024/02/10 05:11:43;;;;;;;1999.90;999.90;;;9.90;99.90;;;;;;4970524;28;20516;-74
2024/02/10 05:14:10;;;;;;;1999.90;999.90;;;9.90;99.90;;;;;;4970600;28;20430;-74
2024/02/10 05:16:36;;;;;;;1999.90;999.90;;;9.90;99.90;;;;;;4968564;28;20418;-74
2024/02/10 05:19:02;;;;;;;1999.90;999.90;;;10.00;99.90;;;;;;4961571;28;20497;-73
2024/02/10 05:21:37;;;;;;;1999.90;999.90;;;9.90;99.90;;;;;;4956745;28;20504;-71
2024/02/10 05:24:10;;;;;;;1999.90;999.90;;;9.80;99.90;;;;;;4956652;28;20201;-72
2024/02/10 05:26:37;;;;;;;1999.90;999.90;;;9.80;99.90;;;;;;4956738;28;20822;-72
2024/02/10 05:29:06;;;;;;;1999.90;999.90;;;9.90;99.90;;;;;;4956314;28;20448;-72
2024/02/10 05:31:36;;;;;;;1999.90;999.90;;;9.90;99.90;;;;;;4956324;28;20457;-73
2024/02/10 05:34:03;;;;;;;1999.90;999.90;;;9.70;99.90;;;;;;4956401;28;20846;-72
2024/02/10 05:36:30;;;;;;;1999.90;999.90;;;9.50;99.90;;;;;;4956375;28;20409;-72
2024/02/10 05:38:56;;;;;;;1999.90;999.90;;;9.60;99.90;;;;;;4956280;28;20415;-72
2024/02/10 05:41:24;;;;;;;1999.90;999.90;;;9.50;99.90;;;;;;4956449;28;20463;-72
2024/02/10 05:43:53;;;;;;;1999.90;999.90;;;9.70;99.90;;;;;;4956085;28;20473;-72
2024/02/10 05:46:19;;;;;;;1999.90;999.90;;;9.60;99.90;;;;;;4956210;28;20418;-72
2024/02/10 05:48:44;;;;;;;1999.90;999.90;;;9.50;99.90;;;;;;4955428;28;20428;-72
2024/02/10 05:51:11;;;;;;;1999.90;999.90;;;9.50;99.90;;;;;;4956142;28;20773;-72
2024/02/10 05:53:37;;;;;;;1999.90;999.90;;;9.50;99.90;;;;;;4956101;28;20229;-72
2024/02/10 05:56:04;;;;;;;1999.90;999.90;;;9.50;99.90;;;;;;4956113;28;20414;-71
2024/02/10 05:58:29;;;;;;;1999.90;999.90;;;9.40;99.90;;;;;;4961593;28;20404;-74
2024/02/10 06:00:55;;;;;;;1999.90;999.90;;;9.50;99.90;;;;;;4962378;28;20962;-73
2024/02/10 06:03:21;;;;;;;1999.90;999.90;;;9.30;99.90;;;;;;4955938;28;20197;-73
2024/02/10 06:05:47;;;;;;;1999.90;999.90;;;9.20;99.90;;;;;;4955901;28;20184;-73
2024/02/10 06:08:13;;;;;;;1999.90;999.90;;;9.40;99.90;;;;;;4955922;28;20477;-71
2024/02/10 06:10:40;;;;;;;1999.90;999.90;;;9.30;99.90;;;;;;4955475;28;20987;-72
2024/02/10 06:13:06;;;;;;;1999.90;999.90;;;9.30;99.90;;;;;;4956674;28;20534;-73
2024/02/10 06:15:32;;;;;;;1999.90;999.90;;;9.30;99.90;;;;;;4963566;28;20420;-74
2024/02/10 06:18:03;;;;;;;1999.90;999.90;;;9.20;99.90;;;;;;4963623;28;20449;-72
2024/02/10 06:20:29;;;;;;;1999.90;999.90;;;9.10;99.90;;;;;;4955403;28;20271;-72
2024/02/10 06:22:57;;;;;;;1999.90;999.90;;;9.40;90.30;;;;;;4955620;28;20537;-73
2024/02/10 06:25:24;;;;;;;1999.90;999.90;;;9.30;99.90;;;;;;4955581;28;20408;-73
2024/02/10 06:27:52;;;;;;;1999.90;999.90;;;9.10;99.90;;;;;;4955371;28;20508;-73
2024/02/10 06:30:20;;;;;;;1999.90;999.90;;;9.10;77.70;;;;;;4955343;28;20545;-73
2024/02/10 06:32:45;;;;;;;1999.90;999.90;;;9.00;93.60;;;;;;4955304;28;20429;-73
2024/02/10 06:35:12;;;;;;;1999.90;999.90;;;9.00;98.10;;;;;;4955451;28;20470;-73
2024/02/10 06:37:39;;;;;;;1999.90;999.90;;;8.90;99.90;;;;;;4955317;28;20214;-72
2024/02/10 06:40:08;;;;;;;1999.90;999.90;;;9.00;99.90;;;;;;4955020;28;20497;-69
2024/02/10 06:42:35;;;;;;;1999.90;999.90;;;9.00;99.90;;;;;;4955223;28;20463;-74
2024/02/10 06:45:13;;;;;;;1999.90;999.90;;;9.10;99.90;;;;;;4955220;28;20419;-69
2024/02/10 06:47:40;;;;;;;1999.90;999.90;;;9.00;99.90;;;;;;4955180;28;20433;-69
2024/02/10 06:50:06;;;;;;;1999.90;999.90;;;8.90;99.90;;;;;;4954881;28;21114;-69
2024/02/10 06:52:34;;;;;;;1999.90;999.90;;;9.10;99.90;;;;;;4954900;28;20415;-70
2024/02/10 06:55:03;;;;;;;1999.90;999.90;;;8.90;99.90;;;;;;4955241;28;20407;-71
2024/02/10 06:57:31;;;;;;;1999.90;999.90;;;8.90;99.90;;;;;;4954936;28;20507;-69
2024/02/10 06:59:57;;;;;;;1999.90;999.90;;;8.60;99.90;;;;;;4953913;28;20405;-69
2024/02/10 07:02:25;;;;;;;1999.90;999.90;;;8.80;99.90;;;;;;4954884;28;20408;-70
2024/02/10 07:04:52;;;;;;;1999.90;999.90;;;8.80;99.90;;;;;;4954880;28;20440;-69
2024/02/10 07:07:21;;;;;;;1999.90;999.90;;;8.80;99.90;;;;;;4954762;28;20441;-70
2024/02/10 07:09:47;;;;;;;1999.90;999.90;;;9.00;99.90;;;;;;4954483;28;20419;-69
2024/02/10 07:12:13;;;;;;;1999.90;999.90;;;;;;;;;;4954513;28;20460;-70
2024/02/10 07:14:38;;;;;;;1999.90;999.90;;;9.00;99.90;;;;;;4954535;29;20263;-70
2024/02/10 07:17:04;;;;;;;1999.90;999.90;;;8.80;99.90;;;;;;4954616;28;20504;-70
2024/02/10 07:19:35;;;;;;;1999.90;999.90;;;9.00;99.90;;;;;;4954406;28;20199;-69
2024/02/10 07:22:02;;;;;;;1999.90;999.90;;;9.40;99.90;;;;;;4954837;28;20531;-70
2024/02/10 07:24:27;;;;;;;1999.90;999.90;;;9.30;99.90;;;;;;4954629;28;20439;-69
2024/02/10 07:26:56;;;;;;;1999.90;999.90;;;9.60;99.90;;;;;;4954450;28;20416;-69
2024/02/10 07:29:23;;;;;;;1999.90;999.90;;;9.60;99.90;;;;;;4954283;28;20412;-69
2024/02/10 07:31:49;;;;;;;1999.90;999.90;;;9.60;99.90;;;;;;4954392;28;20533;-71
2024/02/10 07:34:14;;;;;;;1999.90;999.90;;;9.80;99.90;;;;;;4954296;28;20425;-70
2024/02/10 07:36:40;;;;;;;1999.90;999.90;;;9.90;99.90;;;;;;4954376;28;20249;-71
2024/02/10 07:39:06;;;;;;;1999.90;999.90;;;9.90;99.90;;;;;;4954234;28;20225;-71
2024/02/10 07:41:40;;;;;;;1999.90;999.90;;;9.90;99.90;;;;;;4954291;28;20182;-71
2024/02/10 07:44:12;;;;;;;1999.90;999.90;;;9.90;99.90;;;;;;4954060;28;20450;-70
2024/02/10 07:46:38;;;;;;;1999.90;999.90;;;9.90;99.90;;;;;;4954163;28;20929;-70
2024/02/10 07:49:07;;;;;;;1999.90;999.90;;;10.10;99.90;;;;;;4953872;28;20409;-70
2024/02/10 07:51:33;;;;;;;1999.90;999.90;;;10.00;99.90;;;;;;4954004;28;20223;-69
2024/02/10 07:53:59;;;;;;;1999.90;999.90;;;10.10;99.90;;;;;;4954065;28;20806;-70
2024/02/10 07:56:28;;;;;;;1999.90;999.90;;;10.20;99.90;;;;;;4954022;28;20956;-69
2024/02/10 07:58:59;;;;;;;1999.90;999.90;;;10.30;99.90;;;;;;4953705;28;20413;-70
2024/02/10 08:01:27;;;;;;;1999.90;999.90;;;10.40;99.90;;;;;;4954013;28;20787;-69
2024/02/10 08:03:54;;;;;;;1999.90;999.90;;;10.40;99.90;;;;;;4953776;28;20437;-70
2024/02/10 08:06:26;;;;;;;1999.90;999.90;;;10.40;99.90;;;;;;4953901;28;20407;-69
2024/02/10 08:08:56;;;;;;;1999.90;999.90;;;10.40;99.90;;;;;;4953769;28;20414;-69
2024/02/10 08:11:22;;;;;;;1999.90;999.90;;;10.40;96.10;;;;;;4953552;28;20561;-69
2024/02/10 08:13:51;;;;;;;1999.90;999.90;;;10.40;99.90;;;;;;4953601;28;20769;-69
2024/02/10 08:16:30;;;;;;;1999.90;999.90;;;10.30;99.90;;;;;;4954049;28;20468;-71
2024/02/10 08:18:59;;;;;;;1999.90;999.90;;;10.30;99.90;;;;;;4953836;28;20822;-71
2024/02/10 08:21:26;;;;;;;1999.90;999.90;;;10.30;99.90;;;;;;4953769;28;20468;-71
2024/02/10 08:23:52;;;;;;;1999.90;999.90;;;10.30;99.90;;;;;;4953684;28;20809;-70
2024/02/10 08:26:21;;;;;;;1999.90;999.90;;;10.40;99.90;;;;;;4953709;28;20443;-71
2024/02/10 08:28:56;;;;;;;1999.90;999.90;;;10.40;99.90;;;;;;4953361;28;20441;-69
2024/02/10 08:31:23;;;;;;;1999.90;999.90;;;10.50;99.90;;;;;;4953600;28;20558;-69
2024/02/10 08:33:49;;;;;;;1999.90;999.90;;;10.40;99.90;;;;;;4953505;28;20451;-69
2024/02/10 08:36:16;;;;;;;1999.90;999.90;;;10.50;99.90;;;;;;4953622;28;20460;-69
2024/02/10 08:38:45;;;;;;;1999.90;999.90;;;10.50;99.90;;;;;;4953370;28;20770;-70
2024/02/10 08:41:11;;;;;;;1999.90;999.90;;;10.50;99.90;;;;;;4953582;28;20415;-70
2024/02/10 08:43:37;;;;;;;1999.90;999.90;;;10.50;99.90;;;;;;4953345;28;20516;-70
2024/02/10 08:46:03;;;;;;;1999.90;999.90;;;10.60;99.90;;;;;;4953535;28;20534;-70
2024/02/10 08:48:29;;;;;;;1999.90;999.90;;;10.60;99.90;;;;;;4953218;28;20182;-70
2024/02/10 08:50:55;;;;;;;1999.90;999.90;;;10.60;99.90;;;;;;4953481;28;20449;-70
2024/02/10 08:53:21;;;;;;;1999.90;999.90;;;10.60;99.90;;;;;;4953416;28;20427;-70
2024/02/10 08:55:47;;;;;;;1999.90;999.90;;;10.70;99.90;;;;;;4953405;28;20243;-70
2024/02/10 08:58:15;;;;;;;1999.90;999.90;;;10.70;99.90;;;;;;4953541;28;20420;-70
2024/02/10 09:00:45;;;;;;;1999.90;999.90;;;10.80;99.90;;;;;;4953444;28;20417;-70
2024/02/10 09:03:14;;;;;;;1999.90;999.90;;;11.00;99.90;;;;;;4953361;28;20437;-70
2024/02/10 09:05:40;;;;;;;1999.90;999.90;;;11.00;99.90;;;;;;4953338;28;20409;-70
2024/02/10 09:08:06;;;;;;;1999.90;999.90;;;11.10;99.90;;;;;;4953341;28;20938;-69
2024/02/10 09:10:32;;;;;;;1999.90;999.90;;;11.20;99.90;;;;;;4953106;28;20454;-69
2024/02/10 09:12:58;;;;;;;1999.90;999.90;;;11.40;99.90;;;;;;4953134;28;20522;-69
2024/02/10 09:15:24;;;;;;;1999.90;999.90;;;11.40;99.90;;;;;;4953238;28;20417;-70
2024/02/10 09:17:51;;;;;;;1999.90;999.90;;;11.50;99.90;;;;;;4946539;28;20426;-72
2024/02/10 09:20:17;;;;;;;1999.90;999.90;;;11.60;99.90;;;;;;4952661;28;20418;-69
2024/02/10 09:22:45;;;;;;;1999.90;999.90;;;11.60;99.90;;;;;;4953315;28;20516;-69
2024/02/10 09:25:11;;;;;;;1999.90;999.90;;;11.60;99.90;;;;;;4955900;28;20417;-70
2024/02/10 09:27:36;;;;;;;1999.90;999.90;;;11.80;99.90;;;;;;4956381;28;20491;-69
2024/02/10 09:30:04;;;;;;;1999.90;999.90;;;11.80;68.50;;;;;;4955870;28;20171;-69
2024/02/10 09:32:29;;;;;;;1999.90;999.90;;;12.00;3.20;;;;;;4952770;28;20171;-70
2024/02/10 09:34:55;;;;;;;1999.90;999.90;;;11.90;1.00;;;;;;4956289;28;20410;-70
2024/02/10 09:37:21;;;;;;;1999.90;999.90;;;11.80;1.00;;;;;;4955844;28;20171;-70
2024/02/10 09:39:46;;;;;;;1999.90;999.90;;;11.90;99.90;;;;;;4955546;28;20167;-70
2024/02/10 09:42:22;;;;;;;1999.90;999.90;;;11.90;99.90;;;;;;4953081;28;20179;-70
2024/02/10 09:44:51;;;;;;;1999.90;999.90;;;11.90;99.90;;;;;;4950510;29;20873;-70
2024/02/10 09:47:17;;;;;;;1999.90;999.90;;;11.90;99.90;;;;;;4951856;28;20419;-71
2024/02/10 09:49:43;;;;;;;1999.90;999.90;;;12.00;99.90;;;;;;4951711;29;20402;-71
2024/02/10 09:52:12;;;;;;;1999.90;999.90;;;12.00;99.90;;;;;;4953150;28;20504;-70
2024/02/10 09:54:39;;;;;;;1999.90;999.90;;;12.10;1.00;;;;;;4968811;28;20195;-69
2024/02/10 09:57:07;;;;;;;1999.90;999.90;;;12.10;99.90;;;;;;4956129;28;20399;-70
2024/02/10 09:59:33;;;;;;;1999.90;999.90;;;12.20;99.90;;;;;;4955203;28;20415;-70
2024/02/10 10:01:59;;;;;;;1999.90;999.90;;;12.30;9.00;;;;;;4955386;28;20404;-70
2024/02/10 10:04:25;;;;;;;1999.90;999.90;;;12.40;1.00;;;;;;4955718;28;20196;-70
2024/02/10 10:06:51;;;;;;;1999.90;999.90;;;12.40;1.00;;;;;;4955846;28;20469;-70
2024/02/10 10:09:18;;;;;;;1999.90;999.90;;;12.50;1.00;;;;;;4954443;28;20974;-70
2024/02/10 10:11:45;;;;;;;1999.90;999.90;;;12.60;1.00;;;;;;4954381;28;20566;-70
2024/02/10 10:14:15;;;;;;;1999.90;999.90;;;12.60;1.00;;;;;;4955543;28;20426;-70
2024/02/10 10:16:41;;;;;;;1999.90;999.90;;;12.70;99.90;;;;;;4954190;28;20421;-69
2024/02/10 10:19:08;;;;;;;1999.90;999.90;;;12.70;99.90;;;;;;4955035;28;20399;-70
2024/02/10 10:21:36;;;;;;;1999.90;999.90;;;12.80;99.90;;;;;;4955733;28;20415;-71
2024/02/10 10:24:02;;;;;;;1999.90;999.90;;;12.90;75.40;;;;;;4955275;28;20490;-70
2024/02/10 10:26:28;;;;;;;1999.90;999.90;;;13.00;99.90;;;;;;4955602;28;20824;-70
2024/02/10 10:28:55;;;;;;;1999.90;999.90;;;13.10;1.00;;;;;;4954566;28;20427;-69
2024/02/10 10:31:21;;;;;;;1999.90;999.90;;;13.30;99.90;;;;;;4953982;28;20192;-70
2024/02/10 10:33:48;;;;;;;1999.90;999.90;;;13.50;1.00;;;;;;4954211;28;20789;-71
2024/02/10 10:36:16;;;;;;;1999.90;999.90;;;13.70;1.00;;;;;;4955389;28;20410;-71
2024/02/10 10:38:44;;;;;;;1999.90;999.90;;;13.90;99.90;;;;;;4953943;28;20490;-70
2024/02/10 10:41:12;;;;;;;1999.90;999.90;;;14.00;1.00;;;;;;4955197;28;20848;-70
2024/02/10 10:43:43;;;;;;;1999.90;999.90;;;14.00;1.00;;;;;;4954202;28;20854;-71
2024/02/10 10:46:12;;;;;;;1999.90;999.90;;;14.00;1.00;;;;;;4954593;28;20413;-71
2024/02/10 10:48:38;;;;;;;1999.90;999.90;;;14.00;99.90;;;;;;4954271;28;20413;-71
2024/02/10 10:51:08;;;;;;;1999.90;999.90;;;14.00;54.90;;;;;;4955019;28;20473;-71
2024/02/10 10:53:35;;;;;;;1999.90;999.90;;;13.80;1.00;;;;;;4954420;28;20196;-71
2024/02/10 10:56:04;;;;;;;1999.90;999.90;;;13.90;1.00;;;;;;4954868;28;20453;-70
2024/02/10 10:58:38;;;;;;;1999.90;999.90;;;13.80;18.30;;;;;;4954086;28;20439;-71
2024/02/10 11:01:06;;;;;;;1999.90;999.90;;;13.70;38.90;;;;;;4954743;28;20414;-70
2024/02/10 11:03:32;;;;;;;1999.90;999.90;;;13.70;6.40;;;;;;4954733;28;20437;-69
2024/02/10 11:05:58;;;;;;;1999.90;999.90;;;13.70;99.90;;;;;;4954636;28;20500;-69
2024/02/10 11:08:27;;;;;;;1999.90;999.90;;;13.70;1.00;;;;;;4953714;28;20419;-69
2024/02/10 11:11:00;;;;;;;1999.90;999.90;;;13.70;21.60;;;;;;4953837;28;20472;-68
2024/02/10 11:13:31;;;;;;;1999.90;999.90;;;13.80;14.90;;;;;;4954542;28;20437;-69
2024/02/10 11:16:14;;;;;;;1999.90;999.90;;;13.80;75.30;;;;;;4953965;28;20482;-69
2024/02/10 11:19:02;;;;;;;1999.90;999.90;;;13.70;99.90;;;;;;4953791;28;20775;-69
2024/02/10 11:21:31;;;;;;;1999.90;999.90;;;13.80;29.40;;;;;;4954502;28;20425;-72
2024/02/10 11:23:59;;;;;;;1999.90;999.90;;;13.90;31.10;;;;;;4953910;28;20439;-69
2024/02/10 11:26:29;;;;;;;1999.90;999.90;;;13.90;55.60;;;;;;4954634;28;20849;-69
2024/02/10 11:29:04;;;;;;;1999.90;999.90;;;13.90;62.30;;;;;;4953619;28;20507;-69
2024/02/10 11:31:33;;;;;;;1999.90;999.90;;;14.00;48.60;;;;;;4953837;28;20447;-69
2024/02/10 11:34:05;;;;;;;1999.90;999.90;;;14.00;56.70;;;;;;4954010;28;20865;-69
2024/02/10 11:36:35;;;;;;;1999.90;999.90;;;14.10;96.80;;;;;;4953928;28;20498;-71
2024/02/10 11:39:02;;;;;;;1999.90;999.90;;;14.20;96.40;;;;;;4952787;28;20421;-70
2024/02/10 11:41:28;;;;;;;1999.90;999.90;;;14.40;95.90;;;;;;4954309;28;20425;-70
2024/02/10 11:43:54;;;;;;;1999.90;999.90;;;14.40;94.20;;;;;;4953907;28;20454;-70
2024/02/10 11:46:20;;;;;;;1999.90;999.90;;;14.50;91.50;;;;;;4953016;28;20659;-70
2024/02/10 11:48:47;;;;;;;1999.90;999.90;;;14.40;79.00;;;;;;4953245;28;20499;-70
2024/02/10 11:51:13;;;;;;;1999.90;999.90;;;14.50;80.10;;;;;;4953893;28;20204;-71
2024/02/10 11:53:44;;;;;;;1999.90;999.90;;;14.60;81.70;;;;;;4953343;28;20438;-70
2024/02/10 11:56:10;;;;;;;1999.90;999.90;;;14.60;84.40;;;;;;4954033;28;20490;-70
2024/02/10 11:58:36;;;;;;;1999.90;999.90;;;14.60;79.70;;;;;;4953063;28;20514;-69
2024/02/10 12:01:02;;;;;;;1999.90;999.90;;;14.70;79.40;;;;;;4953159;28;20187;-70
2024/02/10 12:03:30;;;;;;;1999.90;999.90;;;14.70;75.50;;;;;;4953775;28;20433;-71